createdAt,value
2018-09-03T00:02:05.907Z,24.60
2018-09-03T00:04:34.084Z,24.60
2018-09-03T00:07:02.224Z,24.60
2018-09-03T00:09:35.698Z,24.60
2018-09-03T00:12:03.828Z,24.60
2018-09-03T00:14:31.990Z,24.60
2018-09-03T00:17:00.178Z,24.50
2018-09-03T00:19:29.286Z,24.50
2018-09-03T00:21:57.504Z,24.50
2018-09-03T00:24:31.475Z,24.50
2018-09-03T00:26:59.688Z,24.50
2018-09-03T00:29:27.998Z,24.50
2018-09-03T00:32:02.770Z,24.50
2018-09-03T00:34:36.853Z,24.50
2018-09-03T00:37:10.496Z,24.50
2018-09-03T00:39:44.006Z,24.50
2018-09-03T00:42:17.613Z,24.40
2018-09-03T00:44:51.250Z,24.40
2018-09-03T00:47:19.413Z,24.40
2018-09-03T00:49:47.556Z,24.40
2018-09-03T00:52:15.740Z,24.40
2018-09-03T00:54:43.937Z,24.40
2018-09-03T00:57:12.088Z,24.30
2018-09-03T00:59:40.289Z,24.40
2018-09-03T01:02:08.429Z,24.30
2018-09-03T01:04:36.600Z,24.30
2018-09-03T01:07:04.808Z,24.30
2018-09-03T01:09:32.983Z,24.30
2018-09-03T01:12:01.234Z,24.30
2018-09-03T01:14:29.400Z,24.30
2018-09-03T01:16:57.643Z,24.20
2018-09-03T01:19:25.891Z,24.20
2018-09-03T01:21:54.131Z,24.20
2018-09-03T01:24:22.295Z,24.20
2018-09-03T01:26:50.480Z,24.20
2018-09-03T01:29:18.641Z,24.20
2018-09-03T01:31:46.800Z,24.10
2018-09-03T01:34:15.039Z,24.10
2018-09-03T01:36:43.273Z,24.10
2018-09-03T01:39:11.738Z,24.00
2018-09-03T01:41:39.881Z,24.00
2018-09-03T01:44:08.165Z,24.00
2018-09-03T01:46:36.366Z,24.00
2018-09-03T01:49:04.608Z,24.00
2018-09-03T01:51:32.768Z,24.00
2018-09-03T01:54:00.968Z,24.00
2018-09-03T01:56:29.191Z,24.00
2018-09-03T01:58:57.427Z,24.00
2018-09-03T02:01:25.634Z,24.00
2018-09-03T02:03:54.250Z,23.90
2018-09-03T02:06:22.452Z,23.90
2018-09-03T02:08:50.662Z,23.90
2018-09-03T02:11:18.834Z,23.90
2018-09-03T02:13:46.985Z,23.90
2018-09-03T02:16:15.172Z,23.90
2018-09-03T02:18:43.361Z,23.90
2018-09-03T02:21:11.548Z,23.80
2018-09-03T02:23:39.808Z,23.80
2018-09-03T02:26:07.992Z,23.70
2018-09-03T02:28:36.515Z,23.70
2018-09-03T02:31:04.743Z,23.70
2018-09-03T02:33:32.882Z,23.70
2018-09-03T02:36:01.080Z,23.80
2018-09-03T02:38:29.222Z,23.70
2018-09-03T02:40:57.384Z,23.70
2018-09-03T02:43:25.598Z,23.70
2018-09-03T02:45:53.832Z,23.70
2018-09-03T02:48:22.067Z,23.60
2018-09-03T02:50:50.252Z,23.60
2018-09-03T02:53:18.938Z,23.60
2018-09-03T02:55:47.141Z,23.70
2018-09-03T02:58:15.392Z,23.60
2018-09-03T03:00:43.566Z,23.60
2018-09-03T03:03:11.736Z,23.60
2018-09-03T03:05:39.948Z,23.60
2018-09-03T03:08:08.128Z,23.60
2018-09-03T03:10:36.344Z,23.50
2018-09-03T03:13:04.540Z,23.50
2018-09-03T03:15:32.735Z,23.50
2018-09-03T03:18:01.037Z,23.50
2018-09-03T03:20:29.296Z,23.50
2018-09-03T03:22:57.524Z,23.50
2018-09-03T03:25:25.856Z,23.40
2018-09-03T03:27:54.064Z,23.40
2018-09-03T03:30:22.399Z,23.40
2018-09-03T03:32:50.573Z,23.50
2018-09-03T03:35:18.775Z,23.50
2018-09-03T03:37:46.921Z,23.40
2018-09-03T03:40:15.125Z,23.40
2018-09-03T03:42:43.677Z,23.40
2018-09-03T03:45:12.078Z,23.30
2018-09-03T03:47:40.701Z,23.30
2018-09-03T03:50:09.208Z,23.20
2018-09-03T03:52:37.440Z,23.30
2018-09-03T03:55:06.033Z,23.30
2018-09-03T03:57:34.409Z,23.30
2018-09-03T04:00:02.859Z,23.30
2018-09-03T04:02:31.038Z,23.30
2018-09-03T04:04:59.277Z,23.30
2018-09-03T04:07:27.575Z,23.20
2018-09-03T04:09:56.173Z,23.10
2018-09-03T04:12:24.441Z,23.10
2018-09-03T04:14:52.596Z,23.10
2018-09-03T04:17:20.773Z,23.10
2018-09-03T04:19:56.030Z,23.10
2018-09-03T04:22:24.291Z,23.10
2018-09-03T04:24:52.596Z,23.00
2018-09-03T04:27:20.761Z,23.00
2018-09-03T04:29:48.982Z,23.10
2018-09-03T04:32:17.194Z,23.00
2018-09-03T04:34:45.551Z,23.00
2018-09-03T04:37:13.733Z,22.90
2018-09-03T04:39:41.986Z,23.00
2018-09-03T04:42:10.127Z,23.00
2018-09-03T04:44:38.390Z,22.90
2018-09-03T04:47:06.750Z,23.00
2018-09-03T04:49:35.331Z,22.90
2018-09-03T04:52:03.482Z,22.90
2018-09-03T04:54:31.699Z,22.90
2018-09-03T04:57:06.440Z,23.00
2018-09-03T04:59:34.709Z,23.00
2018-09-03T05:02:02.882Z,23.00
2018-09-03T05:04:31.158Z,23.00
2018-09-03T05:06:59.324Z,23.00
2018-09-03T05:09:27.614Z,22.90
2018-09-03T05:11:55.888Z,22.90
2018-09-03T05:14:24.452Z,22.90
2018-09-03T05:16:52.799Z,22.90
2018-09-03T05:19:21.011Z,22.90
2018-09-03T05:21:49.257Z,22.90
2018-09-03T05:24:17.477Z,22.90
2018-09-03T05:26:45.828Z,22.90
2018-09-03T05:29:14.267Z,22.90
2018-09-03T05:31:42.673Z,23.00
2018-09-03T05:34:10.963Z,23.00
2018-09-03T05:36:39.365Z,22.90
2018-09-03T05:39:09.076Z,22.90
2018-09-03T05:41:37.248Z,22.90
2018-09-03T05:44:05.688Z,22.90
2018-09-03T05:46:33.931Z,22.90
2018-09-03T05:49:02.135Z,23.00
2018-09-03T05:51:30.370Z,23.00
2018-09-03T05:53:58.571Z,23.10
2018-09-03T05:56:26.785Z,23.10
2018-09-03T05:58:55.000Z,23.20
2018-09-03T06:01:23.273Z,23.20
2018-09-03T06:03:51.553Z,23.30
2018-09-03T06:06:19.794Z,23.30
2018-09-03T06:08:47.977Z,23.30
2018-09-03T06:11:16.364Z,23.30
2018-09-03T06:13:44.564Z,23.30
2018-09-03T06:16:12.891Z,23.40
2018-09-03T06:18:41.273Z,23.50
2018-09-03T06:21:09.513Z,23.50
2018-09-03T06:23:37.748Z,23.70
2018-09-03T06:26:06.029Z,23.60
2018-09-03T06:28:34.409Z,23.70
2018-09-03T06:31:02.705Z,23.70
2018-09-03T06:33:30.934Z,23.70
2018-09-03T06:35:59.220Z,23.80
2018-09-03T06:38:27.476Z,23.80
2018-09-03T06:40:55.802Z,23.70
2018-09-03T06:43:24.153Z,23.80
2018-09-03T06:45:52.395Z,23.60
2018-09-03T06:48:20.555Z,23.60
2018-09-03T06:50:48.756Z,23.60
2018-09-03T06:53:17.281Z,23.80
2018-09-03T06:55:45.548Z,23.70
2018-09-03T06:58:13.737Z,23.90
2018-09-03T07:00:41.900Z,23.90
2018-09-03T07:03:10.068Z,24.00
2018-09-03T07:05:38.436Z,23.90
2018-09-03T07:08:06.743Z,23.90
2018-09-03T07:10:34.897Z,23.90
2018-09-03T07:13:05.838Z,23.90
2018-09-03T07:15:34.142Z,23.90
2018-09-03T07:18:02.491Z,23.90
2018-09-03T07:20:30.672Z,24.00
2018-09-03T07:22:59.080Z,24.00
2018-09-03T07:25:27.285Z,24.00
2018-09-03T07:27:55.508Z,24.00
2018-09-03T07:30:23.833Z,23.90
2018-09-03T07:32:52.013Z,24.00
2018-09-03T07:35:20.241Z,24.00
2018-09-03T07:37:48.409Z,24.10
2018-09-03T07:40:16.618Z,24.00
2018-09-03T07:42:44.793Z,24.20
2018-09-03T07:45:12.979Z,24.30
2018-09-03T07:47:42.092Z,24.30
2018-09-03T07:50:10.283Z,24.20
2018-09-03T07:52:38.480Z,24.30
2018-09-03T07:55:06.700Z,24.40
2018-09-03T07:57:34.849Z,24.40
2018-09-03T08:00:03.276Z,24.60
2018-09-03T08:02:31.598Z,24.80
2018-09-03T08:04:59.756Z,24.80
2018-09-03T08:07:28.103Z,24.80
2018-09-03T08:09:56.264Z,24.90
2018-09-03T08:12:24.448Z,25.10
2018-09-03T08:14:52.623Z,25.10
2018-09-03T08:17:20.794Z,25.20
2018-09-03T08:19:49.300Z,25.30
2018-09-03T08:22:17.489Z,25.50
2018-09-03T08:24:45.734Z,25.70
2018-09-03T08:27:13.925Z,25.80
2018-09-03T08:29:42.125Z,26.10
2018-09-03T08:32:10.348Z,26.40
2018-09-03T08:34:38.629Z,26.50
2018-09-03T08:37:06.842Z,26.60
2018-09-03T08:39:35.044Z,26.70
2018-09-03T08:42:03.279Z,26.90
2018-09-03T08:44:31.713Z,27.10
2018-09-03T08:46:59.925Z,27.20
2018-09-03T08:49:28.171Z,27.40
2018-09-03T08:51:56.408Z,27.60
2018-09-03T08:54:24.653Z,27.80
2018-09-03T08:56:53.031Z,27.90
2018-09-03T08:59:21.193Z,28.10
2018-09-03T09:01:49.415Z,28.30
2018-09-03T09:04:17.677Z,28.50
2018-09-03T09:06:45.880Z,28.70
2018-09-03T09:09:14.445Z,28.90
2018-09-03T09:11:42.658Z,29.10
2018-09-03T09:14:10.844Z,29.30
2018-09-03T09:16:39.010Z,29.50
2018-09-03T09:19:07.281Z,29.70
2018-09-03T09:21:35.473Z,29.90
2018-09-03T09:24:03.678Z,30.10
2018-09-03T09:26:32.013Z,30.30
2018-09-03T09:29:00.518Z,30.50
2018-09-03T09:31:28.725Z,30.70
2018-09-03T09:33:58.101Z,30.90
2018-09-03T09:36:26.281Z,31.20
2018-09-03T09:38:54.610Z,31.40
2018-09-03T09:41:22.778Z,31.60
2018-09-03T09:43:50.996Z,31.80
2018-09-03T09:46:19.224Z,31.90
2018-09-03T09:48:47.433Z,32.20
2018-09-03T09:51:15.721Z,32.40
2018-09-03T09:53:43.937Z,32.60
2018-09-03T09:56:12.131Z,32.70
2018-09-03T09:58:40.337Z,32.70
2018-09-03T10:01:13.968Z,32.60
2018-09-03T10:03:42.126Z,32.60
2018-09-03T10:06:10.337Z,32.50
2018-09-03T10:08:38.780Z,32.50
2018-09-03T10:11:06.964Z,32.50
2018-09-03T10:13:35.193Z,32.40
2018-09-03T10:16:03.400Z,32.30
2018-09-03T10:18:31.581Z,32.40
2018-09-03T10:20:59.902Z,32.50
2018-09-03T10:23:28.041Z,32.60
2018-09-03T10:25:56.254Z,32.80
2018-09-03T10:28:24.507Z,33.00
2018-09-03T10:30:52.705Z,33.20
2018-09-03T10:33:20.925Z,33.40
2018-09-03T10:35:49.125Z,33.60
2018-09-03T10:38:17.365Z,33.80
2018-09-03T10:40:45.629Z,33.90
2018-09-03T10:43:13.929Z,34.10
2018-09-03T10:45:45.128Z,34.20
2018-09-03T10:48:14.521Z,34.30
2018-09-03T10:50:42.747Z,34.40
2018-09-03T10:53:11.068Z,34.50
2018-09-03T10:55:40.027Z,34.70
2018-09-03T10:58:08.229Z,34.90
2018-09-03T11:00:36.440Z,35.20
2018-09-03T11:03:04.603Z,35.40
2018-09-03T11:05:32.818Z,35.50
2018-09-03T11:08:01.305Z,35.70
2018-09-03T11:10:29.626Z,35.80
2018-09-03T11:12:57.780Z,36.10
2018-09-03T11:15:25.960Z,36.30
2018-09-03T11:17:54.142Z,36.40
2018-09-03T11:20:29.553Z,36.50
2018-09-03T11:22:58.186Z,36.80
2018-09-03T11:25:27.855Z,38.60
2018-09-03T11:27:56.326Z,40.20
2018-09-03T11:30:25.306Z,41.40
2018-09-03T11:32:57.455Z,42.50
2018-09-03T11:35:25.816Z,43.70
2018-09-03T11:37:54.009Z,44.80
2018-09-03T11:40:23.339Z,45.70
2018-09-03T11:42:51.546Z,46.70
2018-09-03T11:45:20.663Z,47.30
2018-09-03T11:47:49.040Z,48.00
2018-09-03T11:50:17.943Z,48.50
2018-09-03T11:52:46.234Z,48.90
2018-09-03T11:55:14.908Z,49.50
2018-09-03T11:57:43.602Z,49.90
2018-09-03T12:00:15.096Z,50.10
2018-09-03T12:02:43.228Z,50.40
2018-09-03T12:05:11.428Z,50.70
2018-09-03T12:07:39.580Z,50.80
2018-09-03T12:10:07.784Z,51.00
2018-09-03T12:12:35.922Z,51.30
2018-09-03T12:15:09.361Z,51.80
2018-09-03T12:17:37.525Z,51.80
2018-09-03T12:20:06.189Z,52.00
2018-09-03T12:22:34.358Z,52.50
2018-09-03T12:25:02.606Z,52.50
2018-09-03T12:27:30.825Z,52.70
2018-09-03T12:29:59.050Z,52.80
2018-09-03T12:32:27.221Z,52.70
2018-09-03T12:34:55.477Z,53.00
2018-09-03T12:37:23.686Z,53.20
2018-09-03T12:39:51.911Z,53.40
2018-09-03T12:42:20.102Z,53.70
2018-09-03T12:44:48.508Z,53.90
2018-09-03T12:47:16.915Z,54.40
2018-09-03T12:49:45.282Z,54.20
2018-09-03T12:52:13.500Z,54.10
2018-09-03T12:54:41.692Z,52.50
2018-09-03T12:57:09.886Z,52.70
2018-09-03T12:59:38.089Z,53.00
2018-09-03T13:02:06.257Z,52.30
2018-09-03T13:04:34.524Z,50.80
2018-09-03T13:07:02.804Z,51.20
2018-09-03T13:09:31.345Z,51.40
2018-09-03T13:11:59.582Z,51.90
2018-09-03T13:14:27.761Z,52.20
2018-09-03T13:16:55.931Z,52.30
2018-09-03T13:19:24.089Z,52.90
2018-09-03T13:21:52.389Z,52.20
2018-09-03T13:24:20.593Z,51.00
2018-09-03T13:26:48.753Z,48.40
2018-09-03T13:29:16.962Z,47.70
2018-09-03T13:31:45.427Z,46.10
2018-09-03T13:34:13.771Z,45.50
2018-09-03T13:36:42.043Z,44.20
2018-09-03T13:39:10.913Z,44.30
2018-09-03T13:41:39.304Z,44.80
2018-09-03T13:44:07.593Z,46.70
2018-09-03T13:46:35.781Z,47.00
2018-09-03T13:49:03.956Z,46.70
2018-09-03T13:51:32.293Z,46.10
2018-09-03T13:54:00.533Z,45.60
2018-09-03T13:56:28.762Z,45.10
2018-09-03T13:58:56.929Z,44.40
2018-09-03T14:01:25.282Z,44.10
2018-09-03T14:03:53.804Z,44.00
2018-09-03T14:06:21.995Z,43.90
2018-09-03T14:08:50.292Z,45.00
2018-09-03T14:11:18.521Z,44.40
2018-09-03T14:13:46.732Z,45.60
2018-09-03T14:16:15.365Z,46.70
2018-09-03T14:18:43.524Z,46.50
2018-09-03T14:21:11.712Z,47.30
2018-09-03T14:23:39.900Z,47.60
2018-09-03T14:26:08.088Z,46.90
2018-09-03T14:28:36.445Z,46.80
2018-09-03T14:31:04.546Z,46.30
2018-09-03T14:33:32.820Z,45.80
2018-09-03T14:36:01.053Z,45.40
2018-09-03T14:38:29.303Z,44.60
2018-09-03T14:40:57.936Z,44.20
2018-09-03T14:43:26.128Z,43.60
2018-09-03T14:45:54.329Z,43.00
2018-09-03T14:48:22.619Z,42.10
2018-09-03T14:50:50.835Z,41.70
2018-09-03T14:53:19.024Z,41.40
2018-09-03T14:55:47.213Z,41.30
2018-09-03T14:58:15.408Z,40.90
2018-09-03T15:00:43.654Z,40.90
2018-09-03T15:03:11.922Z,40.60
2018-09-03T15:05:40.505Z,40.40
2018-09-03T15:08:08.767Z,40.00
2018-09-03T15:10:36.914Z,39.80
2018-09-03T15:13:05.085Z,39.50
2018-09-03T15:15:33.513Z,39.30
2018-09-03T15:18:01.728Z,39.20
2018-09-03T15:20:29.947Z,39.30
2018-09-03T15:22:58.228Z,39.20
2018-09-03T15:25:26.525Z,39.10
2018-09-03T15:27:54.687Z,39.10
2018-09-03T15:30:22.858Z,38.90
2018-09-03T15:32:51.096Z,38.80
2018-09-03T15:35:19.310Z,38.60
2018-09-03T15:37:47.534Z,38.50
2018-09-03T15:40:15.705Z,38.20
2018-09-03T15:42:43.954Z,37.90
2018-09-03T15:45:12.126Z,37.70
2018-09-03T15:47:40.485Z,37.50
2018-09-03T15:50:08.688Z,37.40
2018-09-03T15:52:36.888Z,37.30
2018-09-03T15:55:05.100Z,37.20
2018-09-03T15:57:33.304Z,37.10
2018-09-03T16:00:01.487Z,37.00
2018-09-03T16:02:29.794Z,36.60
2018-09-03T16:04:58.322Z,35.60
2018-09-03T16:07:26.608Z,35.00
2018-09-03T16:09:54.792Z,34.50
2018-09-03T16:12:22.965Z,34.00
2018-09-03T16:14:51.121Z,33.50
2018-09-03T16:17:19.361Z,33.10
2018-09-03T16:19:47.756Z,32.90
2018-09-03T16:22:15.968Z,32.70
2018-09-03T16:24:44.249Z,32.50
2018-09-03T16:27:12.548Z,32.30
2018-09-03T16:29:41.048Z,32.10
2018-09-03T16:32:09.314Z,32.00
2018-09-03T16:34:37.529Z,31.80
2018-09-03T16:37:05.803Z,31.70
2018-09-03T16:39:34.020Z,31.50
2018-09-03T16:42:02.484Z,31.20
2018-09-03T16:44:30.706Z,31.10
2018-09-03T16:46:58.953Z,31.00
2018-09-03T16:49:27.204Z,30.80
2018-09-03T16:51:55.456Z,30.80
2018-09-03T16:54:23.772Z,30.80
2018-09-03T16:56:51.982Z,30.80
2018-09-03T16:59:20.463Z,30.60
2018-09-03T17:01:48.672Z,30.40
2018-09-03T17:04:17.326Z,30.10
2018-09-03T17:06:46.000Z,30.10
2018-09-03T17:09:14.213Z,30.00
2018-09-03T17:11:42.639Z,29.90
2018-09-03T17:14:10.896Z,29.80
2018-09-03T17:16:39.133Z,29.80
2018-09-03T17:19:07.456Z,29.70
2018-09-03T17:21:35.662Z,29.70
2018-09-03T17:24:03.970Z,29.60
2018-09-03T17:26:32.240Z,29.50
2018-09-03T17:29:01.686Z,29.50
2018-09-03T17:31:30.036Z,29.40
2018-09-03T17:33:58.253Z,29.40
2018-09-03T17:36:26.595Z,29.30
2018-09-03T17:38:54.851Z,29.20
2018-09-03T17:41:23.112Z,29.20
2018-09-03T17:43:51.301Z,29.10
2018-09-03T17:46:19.499Z,29.00
2018-09-03T17:48:47.727Z,29.00
2018-09-03T17:51:15.940Z,29.10
2018-09-03T17:53:44.255Z,29.00
2018-09-03T17:56:12.513Z,28.90
2018-09-03T17:58:40.740Z,28.90
2018-09-03T18:01:08.936Z,28.80
2018-09-03T18:03:37.169Z,28.70
2018-09-03T18:06:05.648Z,28.70
2018-09-03T18:08:33.812Z,28.40
2018-09-03T18:11:02.181Z,28.30
2018-09-03T18:13:30.353Z,28.30
2018-09-03T18:15:58.792Z,28.40
2018-09-03T18:18:27.174Z,28.60
2018-09-03T18:20:55.655Z,28.70
2018-09-03T18:23:23.928Z,28.80
2018-09-03T18:25:52.114Z,28.80
2018-09-03T18:28:20.302Z,28.90
2018-09-03T18:30:48.469Z,28.90
2018-09-03T18:33:16.748Z,28.90
2018-09-03T18:35:45.011Z,28.80
2018-09-03T18:38:13.513Z,28.90
2018-09-03T18:40:41.747Z,28.90
2018-09-03T18:43:09.950Z,28.90
2018-09-03T18:45:38.218Z,28.90
2018-09-03T18:48:06.528Z,28.90
2018-09-03T18:50:34.766Z,28.90
2018-09-03T18:53:02.956Z,28.90
2018-09-03T18:55:31.170Z,28.90
2018-09-03T18:57:59.352Z,28.90
2018-09-03T19:00:27.687Z,28.80
2018-09-03T19:02:56.104Z,28.80
2018-09-03T19:05:24.310Z,28.80
2018-09-03T19:07:52.452Z,28.80
2018-09-03T19:10:20.746Z,28.80
2018-09-03T19:12:48.930Z,28.80
2018-09-03T19:15:17.251Z,28.70
2018-09-03T19:17:45.458Z,28.70
2018-09-03T19:20:13.633Z,28.70
2018-09-03T19:22:41.867Z,28.70
2018-09-03T19:25:10.091Z,28.70
2018-09-03T19:27:38.529Z,28.70
2018-09-03T19:30:06.750Z,28.70
2018-09-03T19:32:35.012Z,28.70
2018-09-03T19:35:03.284Z,28.70
2018-09-03T19:37:31.451Z,28.60
2018-09-03T19:39:59.762Z,28.60
2018-09-03T19:42:28.071Z,28.60
2018-09-03T19:44:56.305Z,28.60
2018-09-03T19:47:24.581Z,28.60
2018-09-03T19:49:53.165Z,28.60
2018-09-03T19:52:21.440Z,28.50
2018-09-03T19:54:49.624Z,28.50
2018-09-03T19:57:17.777Z,28.50
2018-09-03T19:59:46.099Z,28.50
2018-09-03T20:02:14.305Z,28.50
2018-09-03T20:04:42.523Z,28.50
2018-09-03T20:07:10.866Z,28.50
2018-09-03T20:09:39.101Z,28.50
2018-09-03T20:12:07.336Z,28.40
2018-09-03T20:14:35.593Z,28.40
2018-09-03T20:17:03.829Z,28.40
2018-09-03T20:19:32.042Z,28.40
2018-09-03T20:22:00.215Z,28.40
2018-09-03T20:24:28.511Z,28.40
2018-09-03T20:26:56.703Z,28.40
2018-09-03T20:29:24.965Z,28.40
2018-09-03T20:31:54.037Z,28.40
2018-09-03T20:34:22.239Z,28.40
2018-09-03T20:36:50.456Z,28.30
2018-09-03T20:39:18.592Z,27.80
2018-09-03T20:41:46.849Z,27.50
2018-09-03T20:44:15.096Z,27.30
2018-09-03T20:46:43.232Z,27.30
2018-09-03T20:49:11.399Z,27.30
2018-09-03T20:51:39.669Z,27.20
2018-09-03T20:54:07.882Z,27.20
2018-09-03T20:56:36.026Z,27.20
2018-09-03T20:59:04.526Z,27.10
2018-09-03T21:01:32.770Z,27.20
2018-09-03T21:04:00.836Z,27.20
2018-09-03T21:06:29.007Z,27.10
2018-09-03T21:08:57.194Z,27.00
2018-09-03T21:11:25.399Z,27.00
2018-09-03T21:13:53.585Z,27.00
2018-09-03T21:16:21.726Z,27.00
2018-09-03T21:18:49.976Z,26.90
2018-09-03T21:21:22.256Z,26.80
2018-09-03T21:23:50.896Z,26.80
2018-09-03T21:26:19.128Z,26.80
2018-09-03T21:28:47.417Z,26.80
2018-09-03T21:31:15.782Z,26.70
2018-09-03T21:33:44.002Z,26.60
2018-09-03T21:36:12.169Z,26.50
2018-09-03T21:38:40.320Z,26.50
2018-09-03T21:41:08.546Z,26.50
2018-09-03T21:43:36.719Z,26.40
2018-09-03T21:46:05.010Z,26.40
2018-09-03T21:48:33.412Z,26.30
2018-09-03T21:51:01.608Z,26.30
2018-09-03T21:53:29.804Z,26.30
2018-09-03T21:55:58.024Z,26.20
2018-09-03T21:58:26.233Z,26.20
2018-09-03T22:00:54.413Z,26.20
2018-09-03T22:03:22.587Z,26.20
2018-09-03T22:05:50.952Z,26.10
2018-09-03T22:08:19.127Z,26.10
2018-09-03T22:10:47.379Z,26.10
2018-09-03T22:13:15.657Z,26.00
2018-09-03T22:15:44.065Z,26.00
2018-09-03T22:18:12.308Z,26.00
2018-09-03T22:20:40.489Z,25.90
2018-09-03T22:23:08.765Z,25.90
2018-09-03T22:25:37.158Z,25.80
2018-09-03T22:28:05.682Z,25.80
2018-09-03T22:30:34.255Z,25.80
2018-09-03T22:33:02.449Z,25.70
2018-09-03T22:35:30.618Z,25.70
2018-09-03T22:37:58.950Z,25.70
2018-09-03T22:40:27.287Z,25.60
2018-09-03T22:42:57.461Z,25.60
2018-09-03T22:45:25.607Z,25.60
2018-09-03T22:47:53.874Z,25.50
2018-09-03T22:50:22.149Z,25.50
2018-09-03T22:52:50.420Z,25.40
2018-09-03T22:55:18.694Z,25.40
2018-09-03T22:57:47.186Z,25.30
2018-09-03T23:00:15.376Z,25.30
2018-09-03T23:02:45.838Z,25.30
2018-09-03T23:05:14.137Z,25.20
2018-09-03T23:07:44.675Z,25.20
2018-09-03T23:10:12.997Z,25.20
2018-09-03T23:12:41.324Z,25.20
2018-09-03T23:15:09.944Z,25.10
2018-09-03T23:17:38.207Z,25.10
2018-09-03T23:20:06.661Z,25.00
2018-09-03T23:22:35.031Z,25.10
2018-09-03T23:25:03.337Z,25.00
2018-09-03T23:27:31.585Z,24.90
2018-09-03T23:29:59.772Z,24.80
2018-09-03T23:32:27.960Z,24.80
2018-09-03T23:34:56.236Z,24.70
2018-09-03T23:37:24.467Z,24.70
2018-09-03T23:39:52.786Z,24.70
2018-09-03T23:42:21.118Z,24.70
2018-09-03T23:44:49.321Z,24.60
2018-09-03T23:47:17.606Z,24.60
2018-09-03T23:49:45.821Z,24.60
2018-09-03T23:52:13.997Z,24.50
2018-09-03T23:54:42.170Z,24.50
2018-09-03T23:57:10.423Z,24.50
2018-09-03T23:59:38.641Z,24.50
